sensor_id;sensor_type;location;lat;lon;timestamp;P1;durP1;ratioP1;P2;durP2;ratioP2
20038;SDS011;21737;42.868;25.320;2022-11-11T00:00:20;52.73;;;28.90;;
20038;SDS011;21737;42.868;25.320;2022-11-11T00:03:41;42.83;;;26.97;;
20038;SDS011;21737;42.868;25.320;2022-11-11T00:07:01;45.97;;;25.90;;
20038;SDS011;21737;42.868;25.320;2022-11-11T00:10:21;43.77;;;26.83;;
20038;SDS011;21737;42.868;25.320;2022-11-11T00:13:42;42.93;;;26.73;;
20038;SDS011;21737;42.868;25.320;2022-11-11T00:17:02;43.07;;;26.40;;
20038;SDS011;21737;42.868;25.320;2022-11-11T00:20:41;40.57;;;27.40;;
20038;SDS011;21737;42.868;25.320;2022-11-11T00:27:58;45.33;;;27.00;;
20038;SDS011;21737;42.868;25.320;2022-11-11T00:31:19;48.53;;;27.60;;
20038;SDS011;21737;42.868;25.320;2022-11-11T00:34:38;44.83;;;27.33;;
20038;SDS011;21737;42.868;25.320;2022-11-11T00:38:05;46.37;;;27.23;;
20038;SDS011;21737;42.868;25.320;2022-11-11T00:41:25;44.83;;;27.27;;
20038;SDS011;21737;42.868;25.320;2022-11-11T00:44:46;45.07;;;28.63;;
20038;SDS011;21737;42.868;25.320;2022-11-11T00:48:07;43.90;;;27.03;;
20038;SDS011;21737;42.868;25.320;2022-11-11T00:51:46;47.10;;;28.43;;
20038;SDS011;21737;42.868;25.320;2022-11-11T00:55:07;41.47;;;26.27;;
20038;SDS011;21737;42.868;25.320;2022-11-11T00:58:27;48.17;;;27.80;;
20038;SDS011;21737;42.868;25.320;2022-11-11T01:01:48;47.27;;;29.03;;
20038;SDS011;21737;42.868;25.320;2022-11-11T01:05:08;52.23;;;28.40;;
20038;SDS011;21737;42.868;25.320;2022-11-11T01:08:29;44.80;;;28.03;;
20038;SDS011;21737;42.868;25.320;2022-11-11T01:11:50;49.63;;;27.50;;
20038;SDS011;21737;42.868;25.320;2022-11-11T01:15:10;45.50;;;28.93;;
20038;SDS011;21737;42.868;25.320;2022-11-11T01:18:30;45.07;;;27.77;;
20038;SDS011;21737;42.868;25.320;2022-11-11T01:21:50;46.30;;;27.13;;
20038;SDS011;21737;42.868;25.320;2022-11-11T01:25:11;45.60;;;27.13;;
20038;SDS011;21737;42.868;25.320;2022-11-11T01:28:31;43.53;;;26.83;;
20038;SDS011;21737;42.868;25.320;2022-11-11T01:31:52;47.97;;;28.00;;
20038;SDS011;21737;42.868;25.320;2022-11-11T01:35:12;47.60;;;29.10;;
20038;SDS011;21737;42.868;25.320;2022-11-11T01:38:32;49.73;;;28.83;;
20038;SDS011;21737;42.868;25.320;2022-11-11T01:41:53;48.30;;;28.50;;
20038;SDS011;21737;42.868;25.320;2022-11-11T01:52:51;50.53;;;28.07;;
20038;SDS011;21737;42.868;25.320;2022-11-11T01:56:12;47.80;;;29.17;;
20038;SDS011;21737;42.868;25.320;2022-11-11T01:59:33;49.93;;;28.33;;
20038;SDS011;21737;42.868;25.320;2022-11-11T02:02:58;53.13;;;30.03;;
20038;SDS011;21737;42.868;25.320;2022-11-11T02:06:20;47.30;;;27.63;;
20038;SDS011;21737;42.868;25.320;2022-11-11T02:09:42;45.83;;;27.70;;
20038;SDS011;21737;42.868;25.320;2022-11-11T02:13:05;49.33;;;27.60;;
20038;SDS011;21737;42.868;25.320;2022-11-11T02:16:44;47.43;;;26.67;;
20038;SDS011;21737;42.868;25.320;2022-11-11T02:20:04;48.13;;;28.07;;
20038;SDS011;21737;42.868;25.320;2022-11-11T02:26:58;49.77;;;27.73;;
20038;SDS011;21737;42.868;25.320;2022-11-11T02:30:20;48.60;;;28.37;;
20038;SDS011;21737;42.868;25.320;2022-11-11T02:33:41;52.80;;;31.17;;
20038;SDS011;21737;42.868;25.320;2022-11-11T02:37:01;50.43;;;30.23;;
20038;SDS011;21737;42.868;25.320;2022-11-11T02:40:28;51.97;;;30.07;;
20038;SDS011;21737;42.868;25.320;2022-11-11T02:43:49;56.33;;;30.97;;
20038;SDS011;21737;42.868;25.320;2022-11-11T02:47:10;51.13;;;29.40;;
20038;SDS011;21737;42.868;25.320;2022-11-11T02:50:30;53.93;;;29.47;;
20038;SDS011;21737;42.868;25.320;2022-11-11T02:53:51;54.77;;;28.97;;
20038;SDS011;21737;42.868;25.320;2022-11-11T02:57:11;51.50;;;28.83;;
20038;SDS011;21737;42.868;25.320;2022-11-11T03:00:32;48.57;;;28.93;;
20038;SDS011;21737;42.868;25.320;2022-11-11T03:03:52;52.80;;;30.70;;
20038;SDS011;21737;42.868;25.320;2022-11-11T03:07:12;55.47;;;30.80;;
20038;SDS011;21737;42.868;25.320;2022-11-11T03:10:32;48.27;;;27.93;;
20038;SDS011;21737;42.868;25.320;2022-11-11T03:13:53;44.37;;;27.07;;
20038;SDS011;21737;42.868;25.320;2022-11-11T03:17:13;47.97;;;28.60;;
20038;SDS011;21737;42.868;25.320;2022-11-11T03:20:53;51.27;;;29.43;;
20038;SDS011;21737;42.868;25.320;2022-11-11T03:24:45;50.83;;;30.40;;
20038;SDS011;21737;42.868;25.320;2022-11-11T03:28:24;51.67;;;30.47;;
20038;SDS011;21737;42.868;25.320;2022-11-11T03:31:44;52.30;;;28.90;;
20038;SDS011;21737;42.868;25.320;2022-11-11T03:35:05;46.17;;;29.20;;
20038;SDS011;21737;42.868;25.320;2022-11-11T03:38:25;53.30;;;30.53;;
20038;SDS011;21737;42.868;25.320;2022-11-11T03:41:45;52.90;;;30.40;;
20038;SDS011;21737;42.868;25.320;2022-11-11T03:45:05;55.43;;;30.93;;
20038;SDS011;21737;42.868;25.320;2022-11-11T03:48:26;57.83;;;31.97;;
20038;SDS011;21737;42.868;25.320;2022-11-11T03:51:46;55.37;;;31.17;;
20038;SDS011;21737;42.868;25.320;2022-11-11T03:55:06;63.70;;;31.57;;
20038;SDS011;21737;42.868;25.320;2022-11-11T03:58:26;55.97;;;30.40;;
20038;SDS011;21737;42.868;25.320;2022-11-11T04:01:46;56.67;;;32.20;;
20038;SDS011;21737;42.868;25.320;2022-11-11T04:05:25;52.23;;;30.60;;
20038;SDS011;21737;42.868;25.320;2022-11-11T04:09:06;49.37;;;29.60;;
20038;SDS011;21737;42.868;25.320;2022-11-11T04:12:44;49.30;;;29.53;;
20038;SDS011;21737;42.868;25.320;2022-11-11T04:16:23;55.10;;;30.00;;
20038;SDS011;21737;42.868;25.320;2022-11-11T04:19:43;55.77;;;30.73;;
20038;SDS011;21737;42.868;25.320;2022-11-11T04:23:22;46.13;;;29.00;;
20038;SDS011;21737;42.868;25.320;2022-11-11T04:26:42;51.13;;;29.90;;
20038;SDS011;21737;42.868;25.320;2022-11-11T04:30:02;52.53;;;31.43;;
20038;SDS011;21737;42.868;25.320;2022-11-11T04:33:23;56.10;;;32.53;;
20038;SDS011;21737;42.868;25.320;2022-11-11T04:36:43;57.13;;;31.73;;
20038;SDS011;21737;42.868;25.320;2022-11-11T04:40:03;59.90;;;33.80;;
20038;SDS011;21737;42.868;25.320;2022-11-11T04:43:42;59.47;;;34.30;;
20038;SDS011;21737;42.868;25.320;2022-11-11T04:47:21;54.73;;;32.40;;
20038;SDS011;21737;42.868;25.320;2022-11-11T04:50:42;52.90;;;32.40;;
20038;SDS011;21737;42.868;25.320;2022-11-11T04:54:03;53.73;;;31.37;;
20038;SDS011;21737;42.868;25.320;2022-11-11T04:57:23;48.30;;;30.47;;
20038;SDS011;21737;42.868;25.320;2022-11-11T05:00:43;50.63;;;30.10;;
20038;SDS011;21737;42.868;25.320;2022-11-11T05:04:04;54.97;;;30.67;;
20038;SDS011;21737;42.868;25.320;2022-11-11T05:07:24;54.37;;;30.67;;
20038;SDS011;21737;42.868;25.320;2022-11-11T05:11:03;53.37;;;31.87;;
20038;SDS011;21737;42.868;25.320;2022-11-11T05:14:23;51.53;;;31.93;;
20038;SDS011;21737;42.868;25.320;2022-11-11T05:18:02;52.47;;;31.60;;
20038;SDS011;21737;42.868;25.320;2022-11-11T05:21:41;54.30;;;30.87;;
20038;SDS011;21737;42.868;25.320;2022-11-11T05:25:01;53.73;;;31.50;;
20038;SDS011;21737;42.868;25.320;2022-11-11T05:28:40;58.60;;;32.87;;
20038;SDS011;21737;42.868;25.320;2022-11-11T05:32:00;56.23;;;32.77;;
20038;SDS011;21737;42.868;25.320;2022-11-11T05:35:20;54.60;;;30.90;;
20038;SDS011;21737;42.868;25.320;2022-11-11T05:38:40;55.07;;;31.93;;
20038;SDS011;21737;42.868;25.320;2022-11-11T05:42:01;53.80;;;31.77;;
20038;SDS011;21737;42.868;25.320;2022-11-11T05:45:21;55.27;;;31.83;;
20038;SDS011;21737;42.868;25.320;2022-11-11T05:48:41;55.20;;;31.33;;
20038;SDS011;21737;42.868;25.320;2022-11-11T05:52:21;51.87;;;32.60;;
20038;SDS011;21737;42.868;25.320;2022-11-11T05:55:41;56.87;;;33.17;;
20038;SDS011;21737;42.868;25.320;2022-11-11T05:59:01;59.67;;;34.27;;
20038;SDS011;21737;42.868;25.320;2022-11-11T06:02:22;59.23;;;33.87;;
20038;SDS011;21737;42.868;25.320;2022-11-11T06:05:41;60.37;;;32.57;;
20038;SDS011;21737;42.868;25.320;2022-11-11T06:09:02;58.73;;;35.07;;
20038;SDS011;21737;42.868;25.320;2022-11-11T06:12:22;62.20;;;35.27;;
20038;SDS011;21737;42.868;25.320;2022-11-11T06:15:42;55.30;;;33.73;;
20038;SDS011;21737;42.868;25.320;2022-11-11T06:19:02;54.90;;;33.03;;
20038;SDS011;21737;42.868;25.320;2022-11-11T06:22:23;55.03;;;33.10;;
20038;SDS011;21737;42.868;25.320;2022-11-11T06:26:03;56.57;;;33.60;;
20038;SDS011;21737;42.868;25.320;2022-11-11T06:29:32;57.40;;;34.57;;
20038;SDS011;21737;42.868;25.320;2022-11-11T06:32:53;68.93;;;38.30;;
20038;SDS011;21737;42.868;25.320;2022-11-11T06:36:14;62.40;;;37.50;;
20038;SDS011;21737;42.868;25.320;2022-11-11T06:39:35;62.97;;;35.63;;
20038;SDS011;21737;42.868;25.320;2022-11-11T06:42:58;60.13;;;37.13;;
20038;SDS011;21737;42.868;25.320;2022-11-11T06:46:20;75.93;;;44.10;;
20038;SDS011;21737;42.868;25.320;2022-11-11T06:49:41;69.13;;;42.73;;
20038;SDS011;21737;42.868;25.320;2022-11-11T06:53:06;79.33;;;45.00;;
20038;SDS011;21737;42.868;25.320;2022-11-11T06:56:26;81.73;;;46.67;;
20038;SDS011;21737;42.868;25.320;2022-11-11T06:59:46;94.13;;;59.73;;
20038;SDS011;21737;42.868;25.320;2022-11-11T07:03:08;81.67;;;43.17;;
20038;SDS011;21737;42.868;25.320;2022-11-11T07:06:28;49.17;;;30.90;;
20038;SDS011;21737;42.868;25.320;2022-11-11T07:09:48;46.40;;;28.57;;
20038;SDS011;21737;42.868;25.320;2022-11-11T07:13:08;45.73;;;27.03;;
20038;SDS011;21737;42.868;25.320;2022-11-11T07:16:28;40.63;;;24.33;;
20038;SDS011;21737;42.868;25.320;2022-11-11T07:19:48;39.67;;;24.27;;
20038;SDS011;21737;42.868;25.320;2022-11-11T07:23:09;40.10;;;24.03;;
20038;SDS011;21737;42.868;25.320;2022-11-11T07:26:29;39.40;;;25.03;;
20038;SDS011;21737;42.868;25.320;2022-11-11T07:29:49;38.97;;;23.53;;
20038;SDS011;21737;42.868;25.320;2022-11-11T07:33:09;44.30;;;24.47;;
20038;SDS011;21737;42.868;25.320;2022-11-11T07:36:29;40.23;;;24.97;;
20038;SDS011;21737;42.868;25.320;2022-11-11T07:39:49;38.13;;;24.97;;
20038;SDS011;21737;42.868;25.320;2022-11-11T07:43:09;42.40;;;25.20;;
20038;SDS011;21737;42.868;25.320;2022-11-11T07:46:29;41.90;;;26.27;;
20038;SDS011;21737;42.868;25.320;2022-11-11T07:49:50;47.93;;;27.37;;
20038;SDS011;21737;42.868;25.320;2022-11-11T07:53:10;44.90;;;26.83;;
20038;SDS011;21737;42.868;25.320;2022-11-11T07:56:33;41.90;;;25.37;;
20038;SDS011;21737;42.868;25.320;2022-11-11T07:59:53;42.93;;;26.07;;
20038;SDS011;21737;42.868;25.320;2022-11-11T08:03:13;46.37;;;27.60;;
20038;SDS011;21737;42.868;25.320;2022-11-11T08:06:34;51.87;;;30.90;;
20038;SDS011;21737;42.868;25.320;2022-11-11T08:09:54;53.63;;;32.90;;
20038;SDS011;21737;42.868;25.320;2022-11-11T08:13:14;50.27;;;30.30;;
20038;SDS011;21737;42.868;25.320;2022-11-11T08:16:53;55.70;;;31.73;;
20038;SDS011;21737;42.868;25.320;2022-11-11T08:20:12;56.20;;;32.50;;
20038;SDS011;21737;42.868;25.320;2022-11-11T08:23:33;54.77;;;30.43;;
20038;SDS011;21737;42.868;25.320;2022-11-11T08:27:13;54.47;;;30.27;;
20038;SDS011;21737;42.868;25.320;2022-11-11T08:30:33;55.20;;;32.83;;
20038;SDS011;21737;42.868;25.320;2022-11-11T08:33:53;61.13;;;34.37;;
20038;SDS011;21737;42.868;25.320;2022-11-11T08:37:13;59.57;;;34.63;;
20038;SDS011;21737;42.868;25.320;2022-11-11T08:40:34;73.83;;;41.13;;
20038;SDS011;21737;42.868;25.320;2022-11-11T08:43:54;66.57;;;37.30;;
20038;SDS011;21737;42.868;25.320;2022-11-11T08:47:14;72.67;;;40.00;;
20038;SDS011;21737;42.868;25.320;2022-11-11T08:50:35;76.47;;;44.80;;
20038;SDS011;21737;42.868;25.320;2022-11-11T08:53:55;82.00;;;45.57;;
20038;SDS011;21737;42.868;25.320;2022-11-11T08:57:16;69.83;;;39.60;;
20038;SDS011;21737;42.868;25.320;2022-11-11T09:00:36;62.57;;;37.40;;
20038;SDS011;21737;42.868;25.320;2022-11-11T09:03:56;64.10;;;37.03;;
20038;SDS011;21737;42.868;25.320;2022-11-11T09:07:30;58.63;;;33.23;;
20038;SDS011;21737;42.868;25.320;2022-11-11T09:10:50;55.03;;;34.77;;
20038;SDS011;21737;42.868;25.320;2022-11-11T09:14:09;52.83;;;30.37;;
20038;SDS011;21737;42.868;25.320;2022-11-11T09:17:30;49.13;;;28.40;;
20038;SDS011;21737;42.868;25.320;2022-11-11T09:20:50;54.23;;;31.40;;
20038;SDS011;21737;42.868;25.320;2022-11-11T09:24:10;40.33;;;25.83;;
20038;SDS011;21737;42.868;25.320;2022-11-11T09:27:30;41.90;;;25.63;;
20038;SDS011;21737;42.868;25.320;2022-11-11T09:30:50;50.97;;;31.20;;
20038;SDS011;21737;42.868;25.320;2022-11-11T09:34:10;48.83;;;28.63;;
20038;SDS011;21737;42.868;25.320;2022-11-11T09:37:30;42.37;;;25.23;;
20038;SDS011;21737;42.868;25.320;2022-11-11T09:51:08;40.30;;;24.40;;
20038;SDS011;21737;42.868;25.320;2022-11-11T09:54:53;39.60;;;23.93;;
20038;SDS011;21737;42.868;25.320;2022-11-11T09:58:18;35.93;;;21.37;;
20038;SDS011;21737;42.868;25.320;2022-11-11T10:01:42;31.20;;;20.77;;
20038;SDS011;21737;42.868;25.320;2022-11-11T10:05:06;33.93;;;20.77;;
20038;SDS011;21737;42.868;25.320;2022-11-11T10:15:11;35.03;;;21.90;;
20038;SDS011;21737;42.868;25.320;2022-11-11T10:22:08;36.23;;;20.00;;
20038;SDS011;21737;42.868;25.320;2022-11-11T10:25:32;34.33;;;21.50;;
20038;SDS011;21737;42.868;25.320;2022-11-11T10:28:53;31.00;;;19.97;;
20038;SDS011;21737;42.868;25.320;2022-11-11T10:32:18;37.63;;;22.87;;
20038;SDS011;21737;42.868;25.320;2022-11-11T10:35:39;34.93;;;22.47;;
20038;SDS011;21737;42.868;25.320;2022-11-11T10:39:00;38.37;;;23.40;;
20038;SDS011;21737;42.868;25.320;2022-11-11T10:42:21;33.80;;;22.30;;
20038;SDS011;21737;42.868;25.320;2022-11-11T10:45:45;39.57;;;24.17;;
20038;SDS011;21737;42.868;25.320;2022-11-11T10:49:17;45.23;;;25.97;;
20038;SDS011;21737;42.868;25.320;2022-11-11T10:52:39;40.53;;;23.43;;
20038;SDS011;21737;42.868;25.320;2022-11-11T10:59:46;40.07;;;24.57;;
20038;SDS011;21737;42.868;25.320;2022-11-11T11:03:11;42.60;;;25.40;;
20038;SDS011;21737;42.868;25.320;2022-11-11T11:06:33;42.40;;;23.97;;
20038;SDS011;21737;42.868;25.320;2022-11-11T11:13:48;36.03;;;20.77;;
20038;SDS011;21737;42.868;25.320;2022-11-11T11:17:13;36.37;;;21.43;;
20038;SDS011;21737;42.868;25.320;2022-11-11T11:20:34;39.97;;;23.53;;
20038;SDS011;21737;42.868;25.320;2022-11-11T11:23:54;33.17;;;21.13;;
20038;SDS011;21737;42.868;25.320;2022-11-11T11:27:15;28.23;;;16.73;;
20038;SDS011;21737;42.868;25.320;2022-11-11T11:30:56;22.03;;;15.20;;
20038;SDS011;21737;42.868;25.320;2022-11-11T11:34:17;29.77;;;17.77;;
20038;SDS011;21737;42.868;25.320;2022-11-11T11:37:47;22.57;;;14.07;;
20038;SDS011;21737;42.868;25.320;2022-11-11T11:41:07;27.87;;;17.60;;
20038;SDS011;21737;42.868;25.320;2022-11-11T11:44:28;36.07;;;20.30;;
20038;SDS011;21737;42.868;25.320;2022-11-11T11:48:02;33.37;;;20.63;;
20038;SDS011;21737;42.868;25.320;2022-11-11T11:55:18;24.23;;;14.77;;
20038;SDS011;21737;42.868;25.320;2022-11-11T11:58:51;25.73;;;16.90;;
20038;SDS011;21737;42.868;25.320;2022-11-11T12:09:38;32.67;;;23.40;;
20038;SDS011;21737;42.868;25.320;2022-11-11T12:20:09;37.53;;;25.93;;
20038;SDS011;21737;42.868;25.320;2022-11-11T12:30:32;33.37;;;22.93;;
20038;SDS011;21737;42.868;25.320;2022-11-11T12:44:53;25.97;;;18.47;;
20038;SDS011;21737;42.868;25.320;2022-11-11T13:02:17;23.37;;;17.37;;
20038;SDS011;21737;42.868;25.320;2022-11-11T13:06:26;25.97;;;17.40;;
20038;SDS011;21737;42.868;25.320;2022-11-11T13:09:28;27.97;;;18.87;;
20038;SDS011;21737;42.868;25.320;2022-11-11T13:16:29;29.00;;;19.73;;
20038;SDS011;21737;42.868;25.320;2022-11-11T13:23:30;22.73;;;17.20;;
20038;SDS011;21737;42.868;25.320;2022-11-11T13:33:51;22.77;;;16.50;;
20038;SDS011;21737;42.868;25.320;2022-11-11T13:37:24;26.50;;;19.03;;
20038;SDS011;21737;42.868;25.320;2022-11-11T13:40:46;30.00;;;19.60;;
20038;SDS011;21737;42.868;25.320;2022-11-11T13:44:16;28.80;;;19.80;;
20038;SDS011;21737;42.868;25.320;2022-11-11T13:47:39;24.33;;;16.80;;
20038;SDS011;21737;42.868;25.320;2022-11-11T13:51:10;22.90;;;16.20;;
20038;SDS011;21737;42.868;25.320;2022-11-11T13:54:35;36.00;;;23.53;;
20038;SDS011;21737;42.868;25.320;2022-11-11T13:57:56;20.27;;;13.80;;
20038;SDS011;21737;42.868;25.320;2022-11-11T14:01:16;20.73;;;14.70;;
20038;SDS011;21737;42.868;25.320;2022-11-11T14:08:59;27.27;;;16.83;;
20038;SDS011;21737;42.868;25.320;2022-11-11T14:12:22;22.83;;;15.40;;
20038;SDS011;21737;42.868;25.320;2022-11-11T14:15:52;23.70;;;18.13;;
20038;SDS011;21737;42.868;25.320;2022-11-11T14:22:40;33.50;;;22.57;;
20038;SDS011;21737;42.868;25.320;2022-11-11T14:29:29;92.57;;;66.13;;
20038;SDS011;21737;42.868;25.320;2022-11-11T14:32:59;42.07;;;29.30;;
20038;SDS011;21737;42.868;25.320;2022-11-11T14:39:53;54.63;;;40.70;;
20038;SDS011;21737;42.868;25.320;2022-11-11T14:53:52;35.30;;;23.77;;
20038;SDS011;21737;42.868;25.320;2022-11-11T14:57:47;26.23;;;17.50;;
20038;SDS011;21737;42.868;25.320;2022-11-11T15:01:07;28.37;;;19.37;;
20038;SDS011;21737;42.868;25.320;2022-11-11T15:04:35;23.07;;;16.83;;
20038;SDS011;21737;42.868;25.320;2022-11-11T15:08:02;21.87;;;16.13;;
20038;SDS011;21737;42.868;25.320;2022-11-11T15:15:03;30.63;;;19.83;;
20038;SDS011;21737;42.868;25.320;2022-11-11T15:36:14;26.20;;;18.47;;
20038;SDS011;21737;42.868;25.320;2022-11-11T15:39:44;30.77;;;21.33;;
20038;SDS011;21737;42.868;25.320;2022-11-11T15:43:04;31.40;;;20.23;;
20038;SDS011;21737;42.868;25.320;2022-11-11T15:46:25;31.57;;;22.07;;
20038;SDS011;21737;42.868;25.320;2022-11-11T15:49:46;35.20;;;23.30;;
20038;SDS011;21737;42.868;25.320;2022-11-11T15:53:11;36.70;;;23.53;;
20038;SDS011;21737;42.868;25.320;2022-11-11T15:56:32;29.83;;;21.13;;
20038;SDS011;21737;42.868;25.320;2022-11-11T15:59:56;32.57;;;21.43;;
20038;SDS011;21737;42.868;25.320;2022-11-11T16:03:21;30.83;;;21.40;;
20038;SDS011;21737;42.868;25.320;2022-11-11T16:06:42;30.97;;;21.50;;
20038;SDS011;21737;42.868;25.320;2022-11-11T16:10:07;36.00;;;23.10;;
20038;SDS011;21737;42.868;25.320;2022-11-11T16:13:30;31.07;;;20.63;;
20038;SDS011;21737;42.868;25.320;2022-11-11T16:16:53;32.37;;;22.87;;
20038;SDS011;21737;42.868;25.320;2022-11-11T16:20:15;34.67;;;24.00;;
20038;SDS011;21737;42.868;25.320;2022-11-11T16:23:38;32.70;;;21.27;;
20038;SDS011;21737;42.868;25.320;2022-11-11T16:27:00;33.30;;;23.83;;
20038;SDS011;21737;42.868;25.320;2022-11-11T16:30:34;31.30;;;22.13;;
20038;SDS011;21737;42.868;25.320;2022-11-11T16:33:54;35.03;;;23.10;;
20038;SDS011;21737;42.868;25.320;2022-11-11T16:37:15;33.27;;;22.43;;
20038;SDS011;21737;42.868;25.320;2022-11-11T16:40:36;33.13;;;22.80;;
20038;SDS011;21737;42.868;25.320;2022-11-11T16:44:27;32.47;;;22.47;;
20038;SDS011;21737;42.868;25.320;2022-11-11T16:47:42;33.93;;;23.33;;
20038;SDS011;21737;42.868;25.320;2022-11-11T16:51:12;33.47;;;23.83;;
20038;SDS011;21737;42.868;25.320;2022-11-11T16:54:38;24.43;;;17.73;;
20038;SDS011;21737;42.868;25.320;2022-11-11T16:58:01;36.37;;;24.07;;
20038;SDS011;21737;42.868;25.320;2022-11-11T17:01:22;36.20;;;25.77;;
20038;SDS011;21737;42.868;25.320;2022-11-11T17:04:48;36.53;;;23.57;;
20038;SDS011;21737;42.868;25.320;2022-11-11T17:11:48;36.00;;;22.67;;
20038;SDS011;21737;42.868;25.320;2022-11-11T17:15:11;33.90;;;23.70;;
20038;SDS011;21737;42.868;25.320;2022-11-11T17:18:34;28.37;;;20.10;;
20038;SDS011;21737;42.868;25.320;2022-11-11T17:22:02;34.13;;;22.63;;
20038;SDS011;21737;42.868;25.320;2022-11-11T17:25:23;27.67;;;19.90;;
20038;SDS011;21737;42.868;25.320;2022-11-11T17:28:43;25.03;;;17.93;;
20038;SDS011;21737;42.868;25.320;2022-11-11T17:32:03;17.57;;;13.60;;
20038;SDS011;21737;42.868;25.320;2022-11-11T17:35:23;20.23;;;14.90;;
20038;SDS011;21737;42.868;25.320;2022-11-11T17:38:43;19.17;;;14.07;;
20038;SDS011;21737;42.868;25.320;2022-11-11T17:42:04;19.90;;;13.57;;
20038;SDS011;21737;42.868;25.320;2022-11-11T17:45:24;18.30;;;13.13;;
20038;SDS011;21737;42.868;25.320;2022-11-11T17:48:46;18.83;;;13.97;;
20038;SDS011;21737;42.868;25.320;2022-11-11T17:52:06;15.80;;;11.30;;
20038;SDS011;21737;42.868;25.320;2022-11-11T17:55:26;13.23;;;10.07;;
20038;SDS011;21737;42.868;25.320;2022-11-11T17:58:46;14.33;;;9.43;;
20038;SDS011;21737;42.868;25.320;2022-11-11T18:02:08;11.07;;;8.70;;
20038;SDS011;21737;42.868;25.320;2022-11-11T18:05:29;17.43;;;12.37;;
20038;SDS011;21737;42.868;25.320;2022-11-11T18:08:52;24.27;;;17.27;;
20038;SDS011;21737;42.868;25.320;2022-11-11T18:12:12;21.13;;;13.40;;
20038;SDS011;21737;42.868;25.320;2022-11-11T18:15:33;18.73;;;13.17;;
20038;SDS011;21737;42.868;25.320;2022-11-11T18:18:56;14.93;;;10.70;;
20038;SDS011;21737;42.868;25.320;2022-11-11T18:22:20;14.63;;;11.50;;
20038;SDS011;21737;42.868;25.320;2022-11-11T18:25:40;14.60;;;10.70;;
20038;SDS011;21737;42.868;25.320;2022-11-11T18:29:04;14.37;;;10.87;;
20038;SDS011;21737;42.868;25.320;2022-11-11T18:32:24;14.77;;;9.53;;
20038;SDS011;21737;42.868;25.320;2022-11-11T18:35:44;13.87;;;9.90;;
20038;SDS011;21737;42.868;25.320;2022-11-11T18:39:07;14.77;;;10.87;;
20038;SDS011;21737;42.868;25.320;2022-11-11T18:42:30;12.67;;;9.93;;
20038;SDS011;21737;42.868;25.320;2022-11-11T18:46:01;17.40;;;13.03;;
20038;SDS011;21737;42.868;25.320;2022-11-11T18:49:21;13.77;;;10.20;;
20038;SDS011;21737;42.868;25.320;2022-11-11T18:52:41;13.63;;;10.47;;
20038;SDS011;21737;42.868;25.320;2022-11-11T18:56:10;15.93;;;10.30;;
20038;SDS011;21737;42.868;25.320;2022-11-11T18:59:31;15.07;;;10.57;;
20038;SDS011;21737;42.868;25.320;2022-11-11T19:02:51;13.30;;;9.63;;
20038;SDS011;21737;42.868;25.320;2022-11-11T19:06:11;11.83;;;9.17;;
20038;SDS011;21737;42.868;25.320;2022-11-11T19:09:31;14.13;;;10.80;;
20038;SDS011;21737;42.868;25.320;2022-11-11T19:12:52;15.07;;;10.67;;
20038;SDS011;21737;42.868;25.320;2022-11-11T19:16:15;14.30;;;10.33;;
20038;SDS011;21737;42.868;25.320;2022-11-11T19:19:35;14.20;;;9.80;;
20038;SDS011;21737;42.868;25.320;2022-11-11T19:22:56;13.27;;;8.93;;
20038;SDS011;21737;42.868;25.320;2022-11-11T19:26:17;13.93;;;10.20;;
20038;SDS011;21737;42.868;25.320;2022-11-11T19:29:40;13.37;;;9.90;;
20038;SDS011;21737;42.868;25.320;2022-11-11T19:33:01;17.70;;;13.03;;
20038;SDS011;21737;42.868;25.320;2022-11-11T19:36:25;16.97;;;12.23;;
20038;SDS011;21737;42.868;25.320;2022-11-11T19:39:49;16.40;;;12.13;;
20038;SDS011;21737;42.868;25.320;2022-11-11T19:43:10;24.20;;;16.43;;
20038;SDS011;21737;42.868;25.320;2022-11-11T19:46:30;21.73;;;15.03;;
20038;SDS011;21737;42.868;25.320;2022-11-11T19:49:55;21.37;;;15.03;;
20038;SDS011;21737;42.868;25.320;2022-11-11T19:53:15;16.93;;;13.20;;
20038;SDS011;21737;42.868;25.320;2022-11-11T19:56:37;18.10;;;13.20;;
20038;SDS011;21737;42.868;25.320;2022-11-11T19:59:57;17.57;;;12.43;;
20038;SDS011;21737;42.868;25.320;2022-11-11T20:03:17;14.53;;;11.40;;
20038;SDS011;21737;42.868;25.320;2022-11-11T20:06:37;15.40;;;11.40;;
20038;SDS011;21737;42.868;25.320;2022-11-11T20:09:57;15.10;;;10.90;;
20038;SDS011;21737;42.868;25.320;2022-11-11T20:13:18;14.00;;;10.50;;
20038;SDS011;21737;42.868;25.320;2022-11-11T20:16:38;13.83;;;10.27;;
20038;SDS011;21737;42.868;25.320;2022-11-11T20:19:58;14.87;;;11.17;;
20038;SDS011;21737;42.868;25.320;2022-11-11T20:23:19;14.63;;;10.80;;
20038;SDS011;21737;42.868;25.320;2022-11-11T20:26:39;14.33;;;10.27;;
20038;SDS011;21737;42.868;25.320;2022-11-11T20:29:59;15.10;;;10.97;;
20038;SDS011;21737;42.868;25.320;2022-11-11T20:33:20;19.53;;;12.80;;
20038;SDS011;21737;42.868;25.320;2022-11-11T20:36:40;21.30;;;14.43;;
20038;SDS011;21737;42.868;25.320;2022-11-11T20:40:00;23.57;;;16.97;;
20038;SDS011;21737;42.868;25.320;2022-11-11T20:43:20;23.00;;;15.53;;
20038;SDS011;21737;42.868;25.320;2022-11-11T20:46:42;18.57;;;13.00;;
20038;SDS011;21737;42.868;25.320;2022-11-11T20:50:02;19.00;;;13.60;;
20038;SDS011;21737;42.868;25.320;2022-11-11T20:53:22;24.03;;;15.13;;
20038;SDS011;21737;42.868;25.320;2022-11-11T20:56:43;25.37;;;17.87;;
20038;SDS011;21737;42.868;25.320;2022-11-11T21:00:06;19.63;;;14.13;;
20038;SDS011;21737;42.868;25.320;2022-11-11T21:03:26;18.87;;;13.83;;
20038;SDS011;21737;42.868;25.320;2022-11-11T21:06:50;20.33;;;13.53;;
20038;SDS011;21737;42.868;25.320;2022-11-11T21:10:11;17.97;;;13.10;;
20038;SDS011;21737;42.868;25.320;2022-11-11T21:13:31;18.53;;;13.20;;
20038;SDS011;21737;42.868;25.320;2022-11-11T21:16:51;17.63;;;13.00;;
20038;SDS011;21737;42.868;25.320;2022-11-11T21:20:11;20.07;;;13.90;;
20038;SDS011;21737;42.868;25.320;2022-11-11T21:23:31;18.80;;;13.03;;
20038;SDS011;21737;42.868;25.320;2022-11-11T21:26:52;17.20;;;12.47;;
20038;SDS011;21737;42.868;25.320;2022-11-11T21:30:12;17.37;;;12.30;;
20038;SDS011;21737;42.868;25.320;2022-11-11T21:33:33;16.73;;;11.97;;
20038;SDS011;21737;42.868;25.320;2022-11-11T21:36:53;19.10;;;11.97;;
20038;SDS011;21737;42.868;25.320;2022-11-11T21:40:13;15.13;;;11.33;;
20038;SDS011;21737;42.868;25.320;2022-11-11T21:43:33;18.97;;;11.80;;
20038;SDS011;21737;42.868;25.320;2022-11-11T21:46:54;16.10;;;11.50;;
20038;SDS011;21737;42.868;25.320;2022-11-11T21:50:14;19.80;;;13.00;;
20038;SDS011;21737;42.868;25.320;2022-11-11T21:53:34;18.80;;;13.03;;
20038;SDS011;21737;42.868;25.320;2022-11-11T21:56:55;18.33;;;11.90;;
20038;SDS011;21737;42.868;25.320;2022-11-11T22:00:15;17.77;;;12.00;;
20038;SDS011;21737;42.868;25.320;2022-11-11T22:03:36;16.73;;;12.03;;
20038;SDS011;21737;42.868;25.320;2022-11-11T22:06:56;17.57;;;12.23;;